sensor_id;sensor_type;location;lat;lon;timestamp;P1;durP1;ratioP1;P2;durP2;ratioP2
3253;SDS011;1639;42.804;23.342;2024-02-23T00:00:11;16.87;;;12.90;;
3253;SDS011;1639;42.804;23.342;2024-02-23T00:02:37;18.73;;;15.40;;
3253;SDS011;1639;42.804;23.342;2024-02-23T00:05:03;24.40;;;20.60;;
3253;SDS011;1639;42.804;23.342;2024-02-23T00:07:29;22.93;;;19.37;;
3253;SDS011;1639;42.804;23.342;2024-02-23T00:09:54;20.23;;;14.17;;
3253;SDS011;1639;42.804;23.342;2024-02-23T00:12:19;20.27;;;13.47;;
3253;SDS011;1639;42.804;23.342;2024-02-23T00:14:45;15.13;;;11.10;;
3253;SDS011;1639;42.804;23.342;2024-02-23T00:17:10;15.70;;;12.70;;
3253;SDS011;1639;42.804;23.342;2024-02-23T00:19:36;13.90;;;11.20;;
3253;SDS011;1639;42.804;23.342;2024-02-23T00:22:02;15.40;;;9.43;;
3253;SDS011;1639;42.804;23.342;2024-02-23T00:24:28;19.37;;;10.10;;
3253;SDS011;1639;42.804;23.342;2024-02-23T00:26:54;13.40;;;11.30;;
3253;SDS011;1639;42.804;23.342;2024-02-23T00:29:20;17.23;;;12.83;;
3253;SDS011;1639;42.804;23.342;2024-02-23T00:31:46;16.93;;;13.03;;
3253;SDS011;1639;42.804;23.342;2024-02-23T00:34:11;19.17;;;13.87;;
3253;SDS011;1639;42.804;23.342;2024-02-23T00:36:38;22.40;;;15.20;;
3253;SDS011;1639;42.804;23.342;2024-02-23T00:39:05;18.23;;;14.30;;
3253;SDS011;1639;42.804;23.342;2024-02-23T00:41:32;19.67;;;14.57;;
3253;SDS011;1639;42.804;23.342;2024-02-23T00:43:58;21.03;;;13.87;;
3253;SDS011;1639;42.804;23.342;2024-02-23T00:46:23;19.17;;;12.63;;
3253;SDS011;1639;42.804;23.342;2024-02-23T00:48:48;14.43;;;11.97;;
3253;SDS011;1639;42.804;23.342;2024-02-23T00:51:14;22.47;;;14.77;;
3253;SDS011;1639;42.804;23.342;2024-02-23T00:53:39;23.37;;;15.33;;
3253;SDS011;1639;42.804;23.342;2024-02-23T00:56:04;18.13;;;13.27;;
3253;SDS011;1639;42.804;23.342;2024-02-23T00:58:30;18.90;;;14.10;;
3253;SDS011;1639;42.804;23.342;2024-02-23T01:00:56;17.70;;;12.70;;
3253;SDS011;1639;42.804;23.342;2024-02-23T01:03:21;13.10;;;11.73;;
3253;SDS011;1639;42.804;23.342;2024-02-23T01:05:47;14.50;;;11.70;;
3253;SDS011;1639;42.804;23.342;2024-02-23T01:08:12;16.33;;;13.87;;
3253;SDS011;1639;42.804;23.342;2024-02-23T01:10:37;17.53;;;12.23;;
3253;SDS011;1639;42.804;23.342;2024-02-23T01:13:03;25.43;;;14.80;;
3253;SDS011;1639;42.804;23.342;2024-02-23T01:15:30;22.07;;;14.33;;
3253;SDS011;1639;42.804;23.342;2024-02-23T01:17:55;19.43;;;13.90;;
3253;SDS011;1639;42.804;23.342;2024-02-23T01:20:21;28.40;;;15.57;;
3253;SDS011;1639;42.804;23.342;2024-02-23T01:22:46;18.90;;;16.23;;
3253;SDS011;1639;42.804;23.342;2024-02-23T01:25:12;21.77;;;15.33;;
3253;SDS011;1639;42.804;23.342;2024-02-23T01:27:39;28.90;;;19.00;;
3253;SDS011;1639;42.804;23.342;2024-02-23T01:30:05;24.63;;;18.50;;
3253;SDS011;1639;42.804;23.342;2024-02-23T01:32:31;23.10;;;19.77;;
3253;SDS011;1639;42.804;23.342;2024-02-23T01:34:56;23.87;;;19.47;;
3253;SDS011;1639;42.804;23.342;2024-02-23T01:37:21;18.53;;;13.77;;
3253;SDS011;1639;42.804;23.342;2024-02-23T01:39:47;16.23;;;13.10;;
3253;SDS011;1639;42.804;23.342;2024-02-23T01:42:12;17.23;;;14.13;;
3253;SDS011;1639;42.804;23.342;2024-02-23T01:44:37;15.57;;;11.70;;
3253;SDS011;1639;42.804;23.342;2024-02-23T01:47:04;19.00;;;11.57;;
3253;SDS011;1639;42.804;23.342;2024-02-23T01:49:29;12.77;;;10.37;;
3253;SDS011;1639;42.804;23.342;2024-02-23T01:51:57;19.13;;;12.87;;
3253;SDS011;1639;42.804;23.342;2024-02-23T01:54:24;19.33;;;10.93;;
3253;SDS011;1639;42.804;23.342;2024-02-23T01:56:50;17.43;;;12.47;;
3253;SDS011;1639;42.804;23.342;2024-02-23T01:59:15;16.60;;;12.27;;
3253;SDS011;1639;42.804;23.342;2024-02-23T02:01:42;18.97;;;10.87;;
3253;SDS011;1639;42.804;23.342;2024-02-23T02:04:09;14.73;;;11.57;;
3253;SDS011;1639;42.804;23.342;2024-02-23T02:06:34;12.13;;;10.23;;
3253;SDS011;1639;42.804;23.342;2024-02-23T02:08:59;17.77;;;15.00;;
3253;SDS011;1639;42.804;23.342;2024-02-23T02:11:25;33.80;;;21.60;;
3253;SDS011;1639;42.804;23.342;2024-02-23T02:13:51;27.87;;;16.63;;
3253;SDS011;1639;42.804;23.342;2024-02-23T02:16:16;21.07;;;13.67;;
3253;SDS011;1639;42.804;23.342;2024-02-23T02:18:41;41.97;;;15.63;;
3253;SDS011;1639;42.804;23.342;2024-02-23T02:21:07;16.63;;;13.57;;
3253;SDS011;1639;42.804;23.342;2024-02-23T02:23:32;19.80;;;12.17;;
3253;SDS011;1639;42.804;23.342;2024-02-23T02:25:58;16.83;;;11.97;;
3253;SDS011;1639;42.804;23.342;2024-02-23T02:28:24;13.20;;;10.70;;
3253;SDS011;1639;42.804;23.342;2024-02-23T02:30:50;25.37;;;12.10;;
3253;SDS011;1639;42.804;23.342;2024-02-23T02:33:20;20.80;;;14.10;;
3253;SDS011;1639;42.804;23.342;2024-02-23T02:35:45;20.63;;;13.67;;
3253;SDS011;1639;42.804;23.342;2024-02-23T02:38:11;24.63;;;14.60;;
3253;SDS011;1639;42.804;23.342;2024-02-23T02:40:37;25.93;;;14.73;;
3253;SDS011;1639;42.804;23.342;2024-02-23T02:43:02;17.63;;;11.97;;
3253;SDS011;1639;42.804;23.342;2024-02-23T02:45:28;20.20;;;13.47;;
3253;SDS011;1639;42.804;23.342;2024-02-23T02:47:53;18.07;;;13.67;;
3253;SDS011;1639;42.804;23.342;2024-02-23T02:50:19;26.50;;;15.37;;
3253;SDS011;1639;42.804;23.342;2024-02-23T02:52:44;15.90;;;14.27;;
3253;SDS011;1639;42.804;23.342;2024-02-23T02:55:10;14.77;;;13.17;;
3253;SDS011;1639;42.804;23.342;2024-02-23T02:57:35;18.60;;;14.47;;
3253;SDS011;1639;42.804;23.342;2024-02-23T03:00:01;17.70;;;13.90;;
3253;SDS011;1639;42.804;23.342;2024-02-23T03:02:30;31.47;;;14.97;;
3253;SDS011;1639;42.804;23.342;2024-02-23T03:04:56;18.40;;;13.40;;
3253;SDS011;1639;42.804;23.342;2024-02-23T03:07:21;23.50;;;15.67;;
3253;SDS011;1639;42.804;23.342;2024-02-23T03:09:46;25.37;;;15.50;;
3253;SDS011;1639;42.804;23.342;2024-02-23T03:12:12;22.90;;;17.43;;
3253;SDS011;1639;42.804;23.342;2024-02-23T03:14:37;21.90;;;13.93;;
3253;SDS011;1639;42.804;23.342;2024-02-23T03:17:05;17.37;;;12.27;;
3253;SDS011;1639;42.804;23.342;2024-02-23T03:19:31;19.70;;;15.17;;
3253;SDS011;1639;42.804;23.342;2024-02-23T03:21:57;24.63;;;15.60;;
3253;SDS011;1639;42.804;23.342;2024-02-23T03:24:23;34.67;;;26.17;;
3253;SDS011;1639;42.804;23.342;2024-02-23T03:26:48;41.97;;;36.10;;
3253;SDS011;1639;42.804;23.342;2024-02-23T03:29:14;72.70;;;64.10;;
3253;SDS011;1639;42.804;23.342;2024-02-23T03:31:39;71.77;;;58.43;;
3253;SDS011;1639;42.804;23.342;2024-02-23T03:34:04;87.60;;;66.43;;
3253;SDS011;1639;42.804;23.342;2024-02-23T03:36:30;69.00;;;61.90;;
3253;SDS011;1639;42.804;23.342;2024-02-23T03:38:55;114.37;;;102.57;;
3253;SDS011;1639;42.804;23.342;2024-02-23T03:41:21;51.07;;;40.60;;
3253;SDS011;1639;42.804;23.342;2024-02-23T03:43:46;34.93;;;29.30;;
3253;SDS011;1639;42.804;23.342;2024-02-23T03:46:11;23.43;;;21.00;;
3253;SDS011;1639;42.804;23.342;2024-02-23T03:48:37;30.87;;;21.50;;
3253;SDS011;1639;42.804;23.342;2024-02-23T03:51:03;30.33;;;21.87;;
3253;SDS011;1639;42.804;23.342;2024-02-23T03:53:30;29.00;;;25.13;;
3253;SDS011;1639;42.804;23.342;2024-02-23T03:55:56;27.30;;;20.73;;
3253;SDS011;1639;42.804;23.342;2024-02-23T03:58:22;29.77;;;20.10;;
3253;SDS011;1639;42.804;23.342;2024-02-23T04:00:47;23.53;;;17.60;;
3253;SDS011;1639;42.804;23.342;2024-02-23T04:03:13;28.53;;;21.90;;
3253;SDS011;1639;42.804;23.342;2024-02-23T04:05:38;30.43;;;20.43;;
3253;SDS011;1639;42.804;23.342;2024-02-23T04:08:03;33.80;;;21.27;;
3253;SDS011;1639;42.804;23.342;2024-02-23T04:10:29;45.33;;;23.20;;
3253;SDS011;1639;42.804;23.342;2024-02-23T04:12:54;32.23;;;23.40;;
3253;SDS011;1639;42.804;23.342;2024-02-23T04:15:20;35.80;;;25.77;;
3253;SDS011;1639;42.804;23.342;2024-02-23T04:17:45;37.30;;;27.57;;
3253;SDS011;1639;42.804;23.342;2024-02-23T04:20:11;39.70;;;29.50;;
3253;SDS011;1639;42.804;23.342;2024-02-23T04:22:37;31.97;;;27.00;;
3253;SDS011;1639;42.804;23.342;2024-02-23T04:25:03;28.07;;;22.70;;
3253;SDS011;1639;42.804;23.342;2024-02-23T04:27:30;39.50;;;22.70;;
3253;SDS011;1639;42.804;23.342;2024-02-23T04:29:55;22.80;;;19.57;;
3253;SDS011;1639;42.804;23.342;2024-02-23T04:32:21;28.53;;;21.67;;
3253;SDS011;1639;42.804;23.342;2024-02-23T04:34:46;28.20;;;18.23;;
3253;SDS011;1639;42.804;23.342;2024-02-23T04:37:11;31.17;;;19.20;;
3253;SDS011;1639;42.804;23.342;2024-02-23T04:39:37;35.17;;;22.70;;
3253;SDS011;1639;42.804;23.342;2024-02-23T04:42:03;27.70;;;19.63;;
3253;SDS011;1639;42.804;23.342;2024-02-23T04:44:29;32.23;;;23.60;;
3253;SDS011;1639;42.804;23.342;2024-02-23T04:46:54;28.00;;;19.27;;
3253;SDS011;1639;42.804;23.342;2024-02-23T04:49:20;23.07;;;15.17;;
3253;SDS011;1639;42.804;23.342;2024-02-23T04:51:45;25.48;;;18.25;;
3253;SDS011;1639;42.804;23.342;2024-02-23T04:54:11;25.83;;;16.00;;
3253;SDS011;1639;42.804;23.342;2024-02-23T04:56:36;16.90;;;12.90;;
3253;SDS011;1639;42.804;23.342;2024-02-23T04:59:01;15.77;;;13.20;;
3253;SDS011;1639;42.804;23.342;2024-02-23T05:01:27;29.97;;;16.10;;
3253;SDS011;1639;42.804;23.342;2024-02-23T05:03:52;21.30;;;17.40;;
3253;SDS011;1639;42.804;23.342;2024-02-23T05:06:18;26.93;;;17.97;;
3253;SDS011;1639;42.804;23.342;2024-02-23T05:08:43;22.70;;;16.27;;
3253;SDS011;1639;42.804;23.342;2024-02-23T05:11:09;29.03;;;16.57;;
3253;SDS011;1639;42.804;23.342;2024-02-23T05:13:34;22.50;;;14.57;;
3253;SDS011;1639;42.804;23.342;2024-02-23T05:16:01;21.53;;;15.57;;
3253;SDS011;1639;42.804;23.342;2024-02-23T05:18:27;22.90;;;14.83;;
3253;SDS011;1639;42.804;23.342;2024-02-23T05:20:52;27.00;;;16.33;;
3253;SDS011;1639;42.804;23.342;2024-02-23T05:23:18;15.50;;;10.93;;
3253;SDS011;1639;42.804;23.342;2024-02-23T05:25:43;10.47;;;8.17;;
3253;SDS011;1639;42.804;23.342;2024-02-23T05:28:09;11.60;;;8.30;;
3253;SDS011;1639;42.804;23.342;2024-02-23T05:30:34;12.60;;;8.80;;
3253;SDS011;1639;42.804;23.342;2024-02-23T05:32:59;14.83;;;9.87;;
3253;SDS011;1639;42.804;23.342;2024-02-23T05:35:28;13.53;;;9.23;;
3253;SDS011;1639;42.804;23.342;2024-02-23T05:37:53;10.47;;;8.60;;
3253;SDS011;1639;42.804;23.342;2024-02-23T05:40:19;17.43;;;10.80;;
3253;SDS011;1639;42.804;23.342;2024-02-23T05:42:45;14.60;;;11.17;;
3253;SDS011;1639;42.804;23.342;2024-02-23T05:45:11;13.50;;;8.53;;
3253;SDS011;1639;42.804;23.342;2024-02-23T05:47:37;15.57;;;9.27;;
3253;SDS011;1639;42.804;23.342;2024-02-23T05:50:07;12.23;;;8.77;;
3253;SDS011;1639;42.804;23.342;2024-02-23T05:52:34;14.00;;;8.97;;
3253;SDS011;1639;42.804;23.342;2024-02-23T05:55:00;23.33;;;14.50;;
3253;SDS011;1639;42.804;23.342;2024-02-23T05:57:26;23.30;;;16.90;;
3253;SDS011;1639;42.804;23.342;2024-02-23T05:59:52;22.43;;;18.30;;
3253;SDS011;1639;42.804;23.342;2024-02-23T06:02:18;31.60;;;20.20;;
3253;SDS011;1639;42.804;23.342;2024-02-23T06:04:43;35.20;;;20.93;;
3253;SDS011;1639;42.804;23.342;2024-02-23T06:07:08;24.83;;;22.13;;
3253;SDS011;1639;42.804;23.342;2024-02-23T06:09:34;25.10;;;18.53;;
3253;SDS011;1639;42.804;23.342;2024-02-23T06:12:00;50.43;;;17.87;;
3253;SDS011;1639;42.804;23.342;2024-02-23T06:14:26;24.77;;;18.87;;
3253;SDS011;1639;42.804;23.342;2024-02-23T06:16:51;36.27;;;19.60;;
3253;SDS011;1639;42.804;23.342;2024-02-23T06:19:16;32.57;;;19.30;;
3253;SDS011;1639;42.804;23.342;2024-02-23T06:21:42;27.30;;;20.37;;
3253;SDS011;1639;42.804;23.342;2024-02-23T06:24:07;20.60;;;18.40;;
3253;SDS011;1639;42.804;23.342;2024-02-23T06:26:34;49.57;;;35.40;;
3253;SDS011;1639;42.804;23.342;2024-02-23T06:29:00;40.00;;;25.53;;
3253;SDS011;1639;42.804;23.342;2024-02-23T06:31:25;30.13;;;18.40;;
3253;SDS011;1639;42.804;23.342;2024-02-23T06:33:51;28.40;;;20.20;;
3253;SDS011;1639;42.804;23.342;2024-02-23T06:36:17;24.33;;;19.13;;
3253;SDS011;1639;42.804;23.342;2024-02-23T06:38:43;27.57;;;22.83;;
3253;SDS011;1639;42.804;23.342;2024-02-23T06:41:10;30.93;;;22.77;;
3253;SDS011;1639;42.804;23.342;2024-02-23T06:43:36;29.57;;;17.03;;
3253;SDS011;1639;42.804;23.342;2024-02-23T06:46:08;95.53;;;75.33;;
3253;SDS011;1639;42.804;23.342;2024-02-23T06:48:34;63.17;;;35.57;;
3253;SDS011;1639;42.804;23.342;2024-02-23T06:51:00;42.13;;;31.20;;
3253;SDS011;1639;42.804;23.342;2024-02-23T06:53:26;23.67;;;20.10;;
3253;SDS011;1639;42.804;23.342;2024-02-23T06:55:51;26.70;;;20.07;;
3253;SDS011;1639;42.804;23.342;2024-02-23T06:58:16;28.77;;;17.97;;
3253;SDS011;1639;42.804;23.342;2024-02-23T07:00:43;23.93;;;19.53;;
3253;SDS011;1639;42.804;23.342;2024-02-23T07:03:09;19.03;;;15.83;;
3253;SDS011;1639;42.804;23.342;2024-02-23T07:05:34;25.80;;;15.63;;
3253;SDS011;1639;42.804;23.342;2024-02-23T07:08:01;31.43;;;19.63;;
3253;SDS011;1639;42.804;23.342;2024-02-23T07:10:27;25.37;;;18.03;;
3253;SDS011;1639;42.804;23.342;2024-02-23T07:12:52;23.00;;;15.90;;
3253;SDS011;1639;42.804;23.342;2024-02-23T07:15:19;24.50;;;17.37;;
3253;SDS011;1639;42.804;23.342;2024-02-23T07:17:45;32.27;;;18.13;;
3253;SDS011;1639;42.804;23.342;2024-02-23T07:20:11;22.80;;;16.10;;
3253;SDS011;1639;42.804;23.342;2024-02-23T07:22:36;22.77;;;16.50;;
3253;SDS011;1639;42.804;23.342;2024-02-23T07:25:02;39.70;;;34.80;;
3253;SDS011;1639;42.804;23.342;2024-02-23T07:27:29;30.53;;;18.10;;
3253;SDS011;1639;42.804;23.342;2024-02-23T07:29:55;24.83;;;21.33;;
3253;SDS011;1639;42.804;23.342;2024-02-23T07:32:21;28.80;;;17.23;;
3253;SDS011;1639;42.804;23.342;2024-02-23T07:34:46;18.67;;;14.67;;
3253;SDS011;1639;42.804;23.342;2024-02-23T07:37:12;32.47;;;17.87;;
3253;SDS011;1639;42.804;23.342;2024-02-23T07:39:38;18.43;;;14.00;;
3253;SDS011;1639;42.804;23.342;2024-02-23T07:42:03;28.73;;;16.40;;
3253;SDS011;1639;42.804;23.342;2024-02-23T07:44:31;22.13;;;15.60;;
3253;SDS011;1639;42.804;23.342;2024-02-23T07:46:56;22.93;;;15.83;;
3253;SDS011;1639;42.804;23.342;2024-02-23T07:49:23;25.17;;;17.03;;
3253;SDS011;1639;42.804;23.342;2024-02-23T07:51:49;32.23;;;18.07;;
3253;SDS011;1639;42.804;23.342;2024-02-23T07:54:14;34.83;;;18.53;;
3253;SDS011;1639;42.804;23.342;2024-02-23T07:56:40;33.43;;;25.43;;
3253;SDS011;1639;42.804;23.342;2024-02-23T07:59:05;19.87;;;16.70;;
3253;SDS011;1639;42.804;23.342;2024-02-23T08:01:31;22.87;;;15.40;;
3253;SDS011;1639;42.804;23.342;2024-02-23T08:03:57;29.10;;;20.70;;
3253;SDS011;1639;42.804;23.342;2024-02-23T08:06:22;50.80;;;36.57;;
3253;SDS011;1639;42.804;23.342;2024-02-23T08:08:48;26.33;;;17.50;;
3253;SDS011;1639;42.804;23.342;2024-02-23T08:11:13;30.53;;;16.97;;
3253;SDS011;1639;42.804;23.342;2024-02-23T08:13:39;19.67;;;14.30;;
3253;SDS011;1639;42.804;23.342;2024-02-23T08:16:05;24.80;;;19.23;;
3253;SDS011;1639;42.804;23.342;2024-02-23T08:18:31;28.20;;;21.53;;
3253;SDS011;1639;42.804;23.342;2024-02-23T08:20:57;18.93;;;12.80;;
3253;SDS011;1639;42.804;23.342;2024-02-23T08:23:23;13.30;;;8.40;;
3253;SDS011;1639;42.804;23.342;2024-02-23T08:25:49;17.30;;;8.40;;
3253;SDS011;1639;42.804;23.342;2024-02-23T08:28:15;12.83;;;7.73;;
3253;SDS011;1639;42.804;23.342;2024-02-23T08:30:41;9.80;;;8.30;;
3253;SDS011;1639;42.804;23.342;2024-02-23T08:33:06;19.07;;;14.53;;
3253;SDS011;1639;42.804;23.342;2024-02-23T08:35:34;15.57;;;8.90;;
3253;SDS011;1639;42.804;23.342;2024-02-23T08:37:59;15.40;;;13.20;;
3253;SDS011;1639;42.804;23.342;2024-02-23T08:40:25;12.50;;;6.97;;
3253;SDS011;1639;42.804;23.342;2024-02-23T08:42:50;8.60;;;6.70;;
3253;SDS011;1639;42.804;23.342;2024-02-23T08:45:16;10.73;;;7.37;;
3253;SDS011;1639;42.804;23.342;2024-02-23T08:47:42;15.57;;;9.40;;
3253;SDS011;1639;42.804;23.342;2024-02-23T08:50:08;15.80;;;7.80;;
3253;SDS011;1639;42.804;23.342;2024-02-23T08:52:34;7.60;;;5.70;;
3253;SDS011;1639;42.804;23.342;2024-02-23T08:54:59;12.33;;;6.47;;
3253;SDS011;1639;42.804;23.342;2024-02-23T08:57:25;11.03;;;6.97;;
3253;SDS011;1639;42.804;23.342;2024-02-23T08:59:52;14.53;;;8.20;;
3253;SDS011;1639;42.804;23.342;2024-02-23T09:02:18;8.37;;;5.37;;
3253;SDS011;1639;42.804;23.342;2024-02-23T09:04:44;10.03;;;6.20;;
3253;SDS011;1639;42.804;23.342;2024-02-23T09:07:10;11.70;;;5.40;;
3253;SDS011;1639;42.804;23.342;2024-02-23T09:09:36;10.20;;;5.20;;
3253;SDS011;1639;42.804;23.342;2024-02-23T09:12:02;10.83;;;6.30;;
3253;SDS011;1639;42.804;23.342;2024-02-23T09:14:27;9.60;;;6.07;;
3253;SDS011;1639;42.804;23.342;2024-02-23T09:16:53;13.73;;;9.77;;
3253;SDS011;1639;42.804;23.342;2024-02-23T09:19:19;7.33;;;5.50;;
3253;SDS011;1639;42.804;23.342;2024-02-23T09:21:45;10.80;;;4.77;;
3253;SDS011;1639;42.804;23.342;2024-02-23T09:24:11;7.60;;;5.13;;
3253;SDS011;1639;42.804;23.342;2024-02-23T09:26:36;7.53;;;5.80;;
3253;SDS011;1639;42.804;23.342;2024-02-23T09:29:01;13.93;;;4.87;;
3253;SDS011;1639;42.804;23.342;2024-02-23T09:31:27;7.53;;;5.50;;
3253;SDS011;1639;42.804;23.342;2024-02-23T09:33:56;10.67;;;4.30;;
3253;SDS011;1639;42.804;23.342;2024-02-23T09:36:21;10.23;;;5.73;;
3253;SDS011;1639;42.804;23.342;2024-02-23T09:38:47;13.43;;;5.17;;
3253;SDS011;1639;42.804;23.342;2024-02-23T09:41:20;6.60;;;3.83;;
3253;SDS011;1639;42.804;23.342;2024-02-23T09:43:47;15.13;;;5.17;;
3253;SDS011;1639;42.804;23.342;2024-02-23T09:46:16;9.67;;;4.40;;
3253;SDS011;1639;42.804;23.342;2024-02-23T09:48:43;7.47;;;5.00;;
3253;SDS011;1639;42.804;23.342;2024-02-23T09:51:09;12.73;;;5.20;;
3253;SDS011;1639;42.804;23.342;2024-02-23T09:53:36;7.30;;;4.90;;
3253;SDS011;1639;42.804;23.342;2024-02-23T09:56:03;8.10;;;5.33;;
3253;SDS011;1639;42.804;23.342;2024-02-23T09:58:30;19.63;;;7.50;;
3253;SDS011;1639;42.804;23.342;2024-02-23T10:00:58;10.10;;;6.33;;
3253;SDS011;1639;42.804;23.342;2024-02-23T10:03:27;6.50;;;3.97;;
3253;SDS011;1639;42.804;23.342;2024-02-23T10:05:59;22.60;;;18.03;;
3253;SDS011;1639;42.804;23.342;2024-02-23T10:08:27;14.93;;;7.53;;
3253;SDS011;1639;42.804;23.342;2024-02-23T10:10:52;7.97;;;4.57;;
3253;SDS011;1639;42.804;23.342;2024-02-23T10:13:19;10.50;;;5.77;;
3253;SDS011;1639;42.804;23.342;2024-02-23T10:15:46;6.40;;;3.53;;
3253;SDS011;1639;42.804;23.342;2024-02-23T10:18:12;11.40;;;5.23;;
3253;SDS011;1639;42.804;23.342;2024-02-23T10:20:37;8.73;;;6.23;;
3253;SDS011;1639;42.804;23.342;2024-02-23T10:23:04;8.73;;;4.10;;
3253;SDS011;1639;42.804;23.342;2024-02-23T10:25:29;7.40;;;3.83;;
3253;SDS011;1639;42.804;23.342;2024-02-23T10:27:58;10.30;;;5.00;;
3253;SDS011;1639;42.804;23.342;2024-02-23T10:30:26;16.70;;;10.50;;
3253;SDS011;1639;42.804;23.342;2024-02-23T10:32:52;6.57;;;3.97;;
3253;SDS011;1639;42.804;23.342;2024-02-23T10:35:21;6.37;;;3.50;;
3253;SDS011;1639;42.804;23.342;2024-02-23T10:37:48;11.20;;;5.00;;
3253;SDS011;1639;42.804;23.342;2024-02-23T10:40:16;9.20;;;4.27;;
3253;SDS011;1639;42.804;23.342;2024-02-23T10:42:45;6.40;;;3.80;;
3253;SDS011;1639;42.804;23.342;2024-02-23T10:45:16;7.73;;;3.83;;
3253;SDS011;1639;42.804;23.342;2024-02-23T10:47:42;8.40;;;4.53;;
3253;SDS011;1639;42.804;23.342;2024-02-23T10:50:08;8.97;;;4.00;;
3253;SDS011;1639;42.804;23.342;2024-02-23T10:52:34;6.10;;;3.50;;
3253;SDS011;1639;42.804;23.342;2024-02-23T10:55:01;7.10;;;3.40;;
3253;SDS011;1639;42.804;23.342;2024-02-23T10:57:30;7.43;;;3.83;;
3253;SDS011;1639;42.804;23.342;2024-02-23T10:59:59;6.57;;;3.40;;
3253;SDS011;1639;42.804;23.342;2024-02-23T11:02:26;8.50;;;3.50;;
3253;SDS011;1639;42.804;23.342;2024-02-23T11:04:54;5.93;;;3.20;;
3253;SDS011;1639;42.804;23.342;2024-02-23T11:07:22;8.70;;;3.60;;
3253;SDS011;1639;42.804;23.342;2024-02-23T11:09:53;8.20;;;3.40;;
3253;SDS011;1639;42.804;23.342;2024-02-23T11:12:24;17.67;;;4.57;;
3253;SDS011;1639;42.804;23.342;2024-02-23T11:14:50;6.47;;;2.97;;
3253;SDS011;1639;42.804;23.342;2024-02-23T11:17:19;7.03;;;4.10;;
3253;SDS011;1639;42.804;23.342;2024-02-23T11:19:51;9.30;;;3.70;;
3253;SDS011;1639;42.804;23.342;2024-02-23T11:22:23;6.73;;;3.77;;
3253;SDS011;1639;42.804;23.342;2024-02-23T11:24:52;7.60;;;4.20;;
3253;SDS011;1639;42.804;23.342;2024-02-23T11:27:18;5.57;;;3.07;;
3253;SDS011;1639;42.804;23.342;2024-02-23T11:29:47;7.90;;;4.30;;
3253;SDS011;1639;42.804;23.342;2024-02-23T11:32:15;9.70;;;5.33;;
3253;SDS011;1639;42.804;23.342;2024-02-23T11:34:52;8.40;;;5.53;;
3253;SDS011;1639;42.804;23.342;2024-02-23T11:37:20;6.83;;;3.40;;
3253;SDS011;1639;42.804;23.342;2024-02-23T11:39:46;7.10;;;3.43;;
3253;SDS011;1639;42.804;23.342;2024-02-23T11:42:11;7.53;;;4.47;;
3253;SDS011;1639;42.804;23.342;2024-02-23T11:44:37;7.13;;;4.10;;
3253;SDS011;1639;42.804;23.342;2024-02-23T11:47:02;6.13;;;3.73;;
3253;SDS011;1639;42.804;23.342;2024-02-23T11:49:28;9.37;;;4.00;;
3253;SDS011;1639;42.804;23.342;2024-02-23T11:51:54;5.10;;;2.60;;
3253;SDS011;1639;42.804;23.342;2024-02-23T11:54:20;8.93;;;3.67;;
3253;SDS011;1639;42.804;23.342;2024-02-23T11:56:46;5.90;;;3.63;;
3253;SDS011;1639;42.804;23.342;2024-02-23T11:59:14;13.07;;;10.47;;
3253;SDS011;1639;42.804;23.342;2024-02-23T12:01:40;5.63;;;3.30;;
3253;SDS011;1639;42.804;23.342;2024-02-23T12:04:05;6.00;;;3.53;;
3253;SDS011;1639;42.804;23.342;2024-02-23T12:06:30;7.10;;;3.30;;
3253;SDS011;1639;42.804;23.342;2024-02-23T12:08:57;8.53;;;3.73;;
3253;SDS011;1639;42.804;23.342;2024-02-23T12:11:23;7.90;;;3.23;;
3253;SDS011;1639;42.804;23.342;2024-02-23T12:13:49;15.33;;;7.27;;
3253;SDS011;1639;42.804;23.342;2024-02-23T12:16:16;9.00;;;4.93;;
3253;SDS011;1639;42.804;23.342;2024-02-23T12:18:41;6.93;;;3.77;;
3253;SDS011;1639;42.804;23.342;2024-02-23T12:21:08;5.97;;;3.30;;
3253;SDS011;1639;42.804;23.342;2024-02-23T12:23:43;6.50;;;3.87;;
3253;SDS011;1639;42.804;23.342;2024-02-23T12:26:10;8.27;;;4.13;;
3253;SDS011;1639;42.804;23.342;2024-02-23T12:28:38;5.97;;;3.07;;
3253;SDS011;1639;42.804;23.342;2024-02-23T12:31:04;5.97;;;3.00;;
3253;SDS011;1639;42.804;23.342;2024-02-23T12:33:39;6.80;;;3.17;;
3253;SDS011;1639;42.804;23.342;2024-02-23T12:36:06;12.20;;;3.70;;
3253;SDS011;1639;42.804;23.342;2024-02-23T12:38:32;5.70;;;2.80;;
3253;SDS011;1639;42.804;23.342;2024-02-23T12:40:59;16.50;;;3.80;;
3253;SDS011;1639;42.804;23.342;2024-02-23T12:43:25;5.97;;;3.47;;
3253;SDS011;1639;42.804;23.342;2024-02-23T12:45:51;5.83;;;3.07;;
3253;SDS011;1639;42.804;23.342;2024-02-23T12:48:17;6.37;;;3.13;;
3253;SDS011;1639;42.804;23.342;2024-02-23T12:50:43;8.10;;;3.33;;
3253;SDS011;1639;42.804;23.342;2024-02-23T12:53:10;11.73;;;3.90;;
3253;SDS011;1639;42.804;23.342;2024-02-23T12:55:56;9.20;;;3.83;;
3253;SDS011;1639;42.804;23.342;2024-02-23T12:58:21;9.43;;;4.50;;
3253;SDS011;1639;42.804;23.342;2024-02-23T13:00:46;10.60;;;4.27;;
3253;SDS011;1639;42.804;23.342;2024-02-23T13:03:12;7.13;;;3.83;;
3253;SDS011;1639;42.804;23.342;2024-02-23T13:05:37;6.87;;;3.33;;
3253;SDS011;1639;42.804;23.342;2024-02-23T13:08:02;6.37;;;3.53;;
3253;SDS011;1639;42.804;23.342;2024-02-23T13:10:28;9.60;;;4.00;;
3253;SDS011;1639;42.804;23.342;2024-02-23T13:12:53;6.20;;;3.70;;
3253;SDS011;1639;42.804;23.342;2024-02-23T13:15:19;6.17;;;3.00;;
3253;SDS011;1639;42.804;23.342;2024-02-23T13:17:44;6.70;;;3.43;;
3253;SDS011;1639;42.804;23.342;2024-02-23T13:20:09;7.10;;;3.57;;
3253;SDS011;1639;42.804;23.342;2024-02-23T13:22:37;6.17;;;3.77;;
3253;SDS011;1639;42.804;23.342;2024-02-23T13:25:03;6.90;;;3.97;;
3253;SDS011;1639;42.804;23.342;2024-02-23T13:27:29;7.83;;;3.77;;
3253;SDS011;1639;42.804;23.342;2024-02-23T13:29:54;6.47;;;3.27;;
3253;SDS011;1639;42.804;23.342;2024-02-23T13:32:20;5.10;;;2.50;;
3253;SDS011;1639;42.804;23.342;2024-02-23T13:34:45;6.40;;;3.47;;
3253;SDS011;1639;42.804;23.342;2024-02-23T13:37:11;6.03;;;3.10;;
3253;SDS011;1639;42.804;23.342;2024-02-23T13:39:37;6.40;;;2.97;;
3253;SDS011;1639;42.804;23.342;2024-02-23T13:42:02;6.10;;;3.37;;
3253;SDS011;1639;42.804;23.342;2024-02-23T13:44:30;9.67;;;3.63;;
3253;SDS011;1639;42.804;23.342;2024-02-23T13:46:56;6.40;;;3.17;;
3253;SDS011;1639;42.804;23.342;2024-02-23T13:49:21;6.97;;;3.53;;
3253;SDS011;1639;42.804;23.342;2024-02-23T13:51:47;5.80;;;3.20;;
3253;SDS011;1639;42.804;23.342;2024-02-23T13:54:12;5.57;;;3.07;;
3253;SDS011;1639;42.804;23.342;2024-02-23T13:56:38;8.80;;;3.97;;
3253;SDS011;1639;42.804;23.342;2024-02-23T13:59:03;7.13;;;3.73;;
3253;SDS011;1639;42.804;23.342;2024-02-23T14:01:29;5.93;;;3.40;;
3253;SDS011;1639;42.804;23.342;2024-02-23T14:03:54;8.80;;;4.60;;
3253;SDS011;1639;42.804;23.342;2024-02-23T14:06:19;7.80;;;3.80;;
3253;SDS011;1639;42.804;23.342;2024-02-23T14:08:45;9.43;;;3.87;;
3253;SDS011;1639;42.804;23.342;2024-02-23T14:11:12;6.23;;;3.63;;
3253;SDS011;1639;42.804;23.342;2024-02-23T14:13:37;9.53;;;3.47;;
3253;SDS011;1639;42.804;23.342;2024-02-23T14:16:03;6.17;;;3.10;;
3253;SDS011;1639;42.804;23.342;2024-02-23T14:18:30;8.73;;;4.00;;
3253;SDS011;1639;42.804;23.342;2024-02-23T14:20:57;8.30;;;3.60;;
3253;SDS011;1639;42.804;23.342;2024-02-23T14:23:23;12.10;;;3.40;;
3253;SDS011;1639;42.804;23.342;2024-02-23T14:25:48;11.13;;;4.50;;
3253;SDS011;1639;42.804;23.342;2024-02-23T14:28:13;10.80;;;4.57;;
3253;SDS011;1639;42.804;23.342;2024-02-23T14:30:39;15.60;;;5.77;;
3253;SDS011;1639;42.804;23.342;2024-02-23T14:33:05;9.13;;;3.70;;
3253;SDS011;1639;42.804;23.342;2024-02-23T14:35:31;6.67;;;4.20;;